createdAt,value
2018-07-21T00:00:29.232Z,978.45
2018-07-21T00:01:39.293Z,978.44
2018-07-21T00:02:49.396Z,978.5
2018-07-21T00:03:59.476Z,978.49
2018-07-21T00:05:09.270Z,978.53
2018-07-21T00:06:19.118Z,978.46
2018-07-21T00:07:29.174Z,978.47
2018-07-21T00:08:39.268Z,978.44
2018-07-21T00:09:49.348Z,978.48
2018-07-21T00:10:59.143Z,978.44
2018-07-21T00:12:09.277Z,978.43
2018-07-21T00:13:19.356Z,978.42
2018-07-21T00:14:29.430Z,978.43
2018-07-21T00:15:39.500Z,978.43
2018-07-21T00:16:49.555Z,978.44
2018-07-21T00:17:59.676Z,978.43
2018-07-21T00:19:09.531Z,978.39
2018-07-21T00:20:19.606Z,978.39
2018-07-21T00:21:29.677Z,978.39
2018-07-21T00:22:39.489Z,978.37
2018-07-21T00:23:49.613Z,978.36
2018-07-21T00:24:59.686Z,978.33
2018-07-21T00:26:08.942Z,978.37
2018-07-21T00:27:19.012Z,978.36
2018-07-21T00:28:29.079Z,978.39
2018-07-21T00:29:38.933Z,978.38
2018-07-21T00:30:48.747Z,978.41
2018-07-21T00:31:58.807Z,978.42
2018-07-21T00:33:08.608Z,978.44
2018-07-21T00:34:18.666Z,978.43
2018-07-21T00:35:28.794Z,978.44
2018-07-21T00:36:38.881Z,978.5
2018-07-21T00:37:48.675Z,978.51
2018-07-21T00:38:58.736Z,978.49
2018-07-21T00:40:08.806Z,978.49
2018-07-21T00:41:18.653Z,978.44
2018-07-21T00:42:28.736Z,978.44
2018-07-21T00:43:38.538Z,978.44
2018-07-21T00:44:48.617Z,978.41
2018-07-21T00:45:58.429Z,978.38
2018-07-21T00:47:08.264Z,978.38
2018-07-21T00:48:18.333Z,978.35
2018-07-21T00:49:28.130Z,978.38
2018-07-21T00:50:37.647Z,978.35
2018-07-21T00:51:47.451Z,978.37
2018-07-21T00:52:57.578Z,978.35
2018-07-21T00:54:07.374Z,978.38
2018-07-21T00:55:17.463Z,978.4
2018-07-21T00:56:27.269Z,978.36
2018-07-21T00:57:37.075Z,978.33
2018-07-21T00:58:47.197Z,978.32
2018-07-21T00:59:57.288Z,978.33
2018-07-21T01:01:07.353Z,978.33
2018-07-21T01:02:17.427Z,978.32
2018-07-21T01:03:27.227Z,978.3
2018-07-21T01:04:37.347Z,978.32
2018-07-21T01:05:47.400Z,978.33
2018-07-21T01:06:57.453Z,978.3
2018-07-21T01:08:06.968Z,978.31
2018-07-21T01:09:17.039Z,978.31
2018-07-21T01:10:26.599Z,978.26
2018-07-21T01:11:36.136Z,978.28
2018-07-21T01:12:46.199Z,978.27
2018-07-21T01:13:56.279Z,978.26
2018-07-21T01:15:06.075Z,978.22
2018-07-21T01:16:15.915Z,978.2
2018-07-21T01:17:25.723Z,978.17
2018-07-21T01:18:35.245Z,978.2
2018-07-21T01:19:44.781Z,978.15
2018-07-21T01:20:54.582Z,978.13
2018-07-21T01:22:04.687Z,978.18
2018-07-21T01:23:14.737Z,978.1
2018-07-21T01:24:24.266Z,978.14
2018-07-21T01:25:33.796Z,978.1
2018-07-21T01:26:43.859Z,978.13
2018-07-21T01:27:53.719Z,978.13
2018-07-21T01:29:03.796Z,978.14
2018-07-21T01:30:13.870Z,978.13
2018-07-21T01:31:23.665Z,978.15
2018-07-21T01:32:33.462Z,978.19
2018-07-21T01:33:43.027Z,978.15
2018-07-21T01:34:52.825Z,978.2
2018-07-21T01:36:02.888Z,978.18
2018-07-21T01:37:12.463Z,978.2
2018-07-21T01:38:22.248Z,978.2
2018-07-21T01:39:32.383Z,978.21
2018-07-21T01:40:42.173Z,978.19
2018-07-21T01:41:52.239Z,978.24
2018-07-21T01:43:02.329Z,978.2
2018-07-21T01:44:12.140Z,978.21
2018-07-21T01:45:21.987Z,978.22
2018-07-21T01:46:32.070Z,978.22
2018-07-21T01:47:42.123Z,978.23
2018-07-21T01:48:52.186Z,978.24
2018-07-21T01:50:01.986Z,978.25
2018-07-21T01:51:11.567Z,978.29
2018-07-21T01:52:21.634Z,978.3
2018-07-21T01:53:31.711Z,978.28
2018-07-21T01:54:41.232Z,978.33
2018-07-21T01:55:51.296Z,978.22
2018-07-21T01:57:01.426Z,978.21
2018-07-21T01:58:11.496Z,978.23
2018-07-21T01:59:21.292Z,978.24
2018-07-21T02:00:30.813Z,978.24
2018-07-21T02:01:40.862Z,978.23
2018-07-21T02:02:50.715Z,978.22
2018-07-21T02:04:00.494Z,978.22
2018-07-21T02:05:10.291Z,978.21
2018-07-21T02:06:19.802Z,978.18
2018-07-21T02:07:29.604Z,978.23
2018-07-21T02:08:39.710Z,978.23
2018-07-21T02:09:49.765Z,978.2
2018-07-21T02:10:59.827Z,978.17
2018-07-21T02:12:09.341Z,978.17
2018-07-21T02:13:19.139Z,978.19
2018-07-21T02:14:28.451Z,978.22
2018-07-21T02:15:38.536Z,978.23
2018-07-21T02:16:48.601Z,978.25
2018-07-21T02:17:58.387Z,978.28
2018-07-21T02:19:08.448Z,978.3
2018-07-21T02:20:18.569Z,978.29
2018-07-21T02:21:28.353Z,978.29
2018-07-21T02:22:38.494Z,978.34
2018-07-21T02:23:48.489Z,978.3
2018-07-21T02:24:58.203Z,978.27
2018-07-21T02:26:07.793Z,978.24
2018-07-21T02:27:17.865Z,978.29
2018-07-21T02:28:27.922Z,978.25
2018-07-21T02:29:37.994Z,978.26
2018-07-21T02:30:47.799Z,978.26
2018-07-21T02:31:57.672Z,978.23
2018-07-21T02:33:06.931Z,978.25
2018-07-21T02:34:16.754Z,978.25
2018-07-21T02:35:26.298Z,978.27
2018-07-21T02:36:36.106Z,978.26
2018-07-21T02:37:45.947Z,978.26
2018-07-21T02:38:55.751Z,978.3
2018-07-21T02:40:05.835Z,978.27
2018-07-21T02:41:15.368Z,978.28
2018-07-21T02:42:24.901Z,978.3
2018-07-21T02:43:35.027Z,978.33
2018-07-21T02:44:45.114Z,978.35
2018-07-21T02:45:55.175Z,978.33
2018-07-21T02:47:04.971Z,978.32
2018-07-21T02:48:15.040Z,978.3
2018-07-21T02:49:24.899Z,978.33
2018-07-21T02:50:34.996Z,978.28
2018-07-21T02:51:44.535Z,978.27
2018-07-21T02:52:54.607Z,978.27
2018-07-21T02:54:04.676Z,978.25
2018-07-21T02:55:14.805Z,978.28
2018-07-21T02:56:24.881Z,978.32
2018-07-21T02:57:34.967Z,978.33
2018-07-21T02:58:45.051Z,978.34
2018-07-21T02:59:55.122Z,978.38
2018-07-21T03:03:38.237Z,978.39
2018-07-21T03:04:48.039Z,978.39
2018-07-21T03:05:58.133Z,978.42
2018-07-21T03:07:07.936Z,978.4
2018-07-21T03:08:17.734Z,978.43
2018-07-21T03:09:27.582Z,978.43
2018-07-21T03:10:37.660Z,978.41
2018-07-21T03:11:47.768Z,978.39
2018-07-21T03:12:57.569Z,978.36
2018-07-21T03:14:07.645Z,978.36
2018-07-21T03:15:17.778Z,978.35
2018-07-21T03:16:27.832Z,978.36
2018-07-21T03:17:37.626Z,978.35
2018-07-21T03:18:47.444Z,978.36
2018-07-21T03:19:57.238Z,978.33
2018-07-21T03:21:06.561Z,978.35
2018-07-21T03:22:16.092Z,978.37
2018-07-21T03:23:26.173Z,978.37
2018-07-21T03:24:35.701Z,978.34
2018-07-21T03:25:45.769Z,978.37
2018-07-21T03:26:55.912Z,978.32
2018-07-21T03:28:05.443Z,978.33
2018-07-21T03:29:15.254Z,978.33
2018-07-21T03:30:25.051Z,978.31
2018-07-21T03:31:34.853Z,978.3
2018-07-21T03:32:44.721Z,978.3
2018-07-21T03:33:54.801Z,978.27
2018-07-21T03:35:04.897Z,978.28
2018-07-21T03:36:14.705Z,978.22
2018-07-21T03:37:24.787Z,978.26
2018-07-21T03:38:34.626Z,978.27
2018-07-21T03:39:44.695Z,978.25
2018-07-21T03:40:54.764Z,978.26
2018-07-21T03:42:04.585Z,978.31
2018-07-21T03:43:14.396Z,978.28
2018-07-21T03:44:24.253Z,978.31
2018-07-21T03:45:34.318Z,978.3
2018-07-21T03:46:44.130Z,978.28
2018-07-21T03:47:53.927Z,978.27
2018-07-21T03:49:03.987Z,978.27
2018-07-21T03:50:13.554Z,978.22
2018-07-21T03:51:23.619Z,978.21
2018-07-21T03:52:33.695Z,978.19
2018-07-21T03:53:43.760Z,978.18
2018-07-21T03:54:53.866Z,978.17
2018-07-21T03:56:04.214Z,978.16
2018-07-21T03:57:13.503Z,978.17
2018-07-21T03:58:23.310Z,978.14
2018-07-21T03:59:33.370Z,978.2
2018-07-21T04:00:42.895Z,978.14
2018-07-21T04:01:52.745Z,978.11
2018-07-21T04:03:02.553Z,978.13
2018-07-21T04:04:12.094Z,978.11
2018-07-21T04:05:22.168Z,978.11
2018-07-21T04:06:32.235Z,978.09
2018-07-21T04:07:42.100Z,978.11
2018-07-21T04:08:52.176Z,978.08
2018-07-21T04:10:01.932Z,978.09
2018-07-21T04:11:11.480Z,978.09
2018-07-21T04:12:21.274Z,978.14
2018-07-21T04:13:31.124Z,978.1
2018-07-21T04:14:41.166Z,978.15
2018-07-21T04:15:51.277Z,978.13
2018-07-21T04:17:01.355Z,978.13
2018-07-21T04:18:10.886Z,978.1
2018-07-21T04:19:20.726Z,978.06
2018-07-21T04:20:30.253Z,978.09
2018-07-21T04:21:40.055Z,978.07
2018-07-21T04:22:50.123Z,978.11
2018-07-21T04:23:59.386Z,978.04
2018-07-21T04:25:09.312Z,977.99
2018-07-21T04:26:19.392Z,977.96
2018-07-21T04:27:29.189Z,977.94
2018-07-21T04:28:38.986Z,977.92
2018-07-21T04:29:49.042Z,977.89
2018-07-21T04:30:59.152Z,977.88
2018-07-21T04:32:09.213Z,977.88
2018-07-21T04:33:19.292Z,977.86
2018-07-21T04:34:29.076Z,977.86
2018-07-21T04:35:38.876Z,977.89
2018-07-21T04:36:48.992Z,977.91
2018-07-21T04:37:58.809Z,977.93
2018-07-21T04:39:08.066Z,977.91
2018-07-21T04:40:18.130Z,977.92
2018-07-21T04:41:27.937Z,977.9
2018-07-21T04:42:38.043Z,977.93
2018-07-21T04:43:47.846Z,977.93
2018-07-21T04:44:57.666Z,977.9
2018-07-21T04:46:07.487Z,977.93
2018-07-21T04:47:17.576Z,977.89
2018-07-21T04:48:27.692Z,977.88
2018-07-21T04:49:37.768Z,977.88
2018-07-21T04:50:47.840Z,977.91
2018-07-21T04:51:57.911Z,977.92
2018-07-21T04:53:07.966Z,977.9
2018-07-21T04:54:17.529Z,977.88
2018-07-21T04:55:27.608Z,977.9
2018-07-21T04:56:37.682Z,977.89
2018-07-21T04:57:47.748Z,977.86
2018-07-21T04:58:57.553Z,977.88
2018-07-21T05:00:07.399Z,977.84
2018-07-21T05:01:17.509Z,977.82
2018-07-21T05:02:27.308Z,977.84
2018-07-21T05:03:36.831Z,977.85
2018-07-21T05:04:46.939Z,977.86
2018-07-21T05:05:56.792Z,977.84
2018-07-21T05:07:06.333Z,977.87
2018-07-21T05:08:15.581Z,977.89
2018-07-21T05:09:25.650Z,977.88
2018-07-21T05:10:35.437Z,977.84
2018-07-21T05:11:45.560Z,977.94
2018-07-21T05:12:55.344Z,977.9
2018-07-21T05:14:04.877Z,977.9
2018-07-21T05:15:14.692Z,977.92
2018-07-21T05:16:24.771Z,977.92
2018-07-21T05:17:34.344Z,977.93
2018-07-21T05:18:44.409Z,977.91
2018-07-21T05:19:53.932Z,977.96
2018-07-21T05:21:03.260Z,977.96
2018-07-21T05:22:13.067Z,977.94
2018-07-21T05:23:22.907Z,977.95
2018-07-21T05:24:32.985Z,977.92
2018-07-21T05:25:42.766Z,977.89
2018-07-21T05:26:52.832Z,977.9
2018-07-21T05:28:02.903Z,977.86
2018-07-21T05:29:12.744Z,977.84
2018-07-21T05:30:22.550Z,977.85
2018-07-21T05:31:31.790Z,977.84
2018-07-21T05:32:41.854Z,977.83
2018-07-21T05:33:51.394Z,977.8
2018-07-21T05:35:01.533Z,977.8
2018-07-21T05:36:11.619Z,977.83
2018-07-21T05:37:21.711Z,977.8
2018-07-21T05:38:31.799Z,977.75
2018-07-21T05:39:41.884Z,977.79
2018-07-21T05:40:51.747Z,977.76
2018-07-21T05:42:01.557Z,977.77
2018-07-21T05:43:11.617Z,977.74
2018-07-21T05:44:21.664Z,977.78
2018-07-21T05:45:31.482Z,977.78
2018-07-21T05:46:41.609Z,977.77
2018-07-21T05:47:51.697Z,977.77
2018-07-21T05:49:01.497Z,977.77
2018-07-21T05:50:11.301Z,977.77
2018-07-21T05:51:21.084Z,977.75
2018-07-21T05:52:31.209Z,977.79
2018-07-21T05:53:41.013Z,977.77
2018-07-21T05:54:51.077Z,977.73
2018-07-21T05:56:01.133Z,977.71
2018-07-21T05:57:10.926Z,977.74
2018-07-21T05:58:20.774Z,977.72
2018-07-21T05:59:30.853Z,977.77
2018-07-21T06:00:40.365Z,977.79
2018-07-21T06:01:50.172Z,977.74
2018-07-21T06:03:00.291Z,977.76
2018-07-21T06:04:10.519Z,977.75
2018-07-21T06:05:20.617Z,977.78
2018-07-21T06:06:30.436Z,977.76
2018-07-21T06:07:40.511Z,977.8
2018-07-21T06:08:50.590Z,977.74
2018-07-21T06:10:00.771Z,977.7
2018-07-21T06:11:10.879Z,977.75
2018-07-21T06:12:20.732Z,977.74
2018-07-21T06:13:30.524Z,977.75
2018-07-21T06:14:40.599Z,977.78
2018-07-21T06:15:50.190Z,977.78
2018-07-21T06:17:00.297Z,977.75
2018-07-21T06:18:10.136Z,977.73
2018-07-21T06:19:20.204Z,977.73
2018-07-21T06:20:29.992Z,977.72
2018-07-21T06:21:40.113Z,977.67
2018-07-21T06:22:50.181Z,977.66
2018-07-21T06:23:59.966Z,977.65
2018-07-21T06:25:09.521Z,977.64
2018-07-21T06:26:20.156Z,977.7
2018-07-21T06:27:29.999Z,977.71
2018-07-21T06:28:40.111Z,977.7
2018-07-21T06:29:50.162Z,977.72
2018-07-21T06:30:59.956Z,977.75
2018-07-21T06:32:09.489Z,977.71
2018-07-21T06:33:19.598Z,977.69
2018-07-21T06:34:29.680Z,977.67
2018-07-21T06:35:39.596Z,977.7
2018-07-21T06:37:08.608Z,977.7
2018-07-21T06:38:17.890Z,977.7
2018-07-21T06:39:28.267Z,977.68
2018-07-21T06:40:38.612Z,977.66
2018-07-21T06:41:48.673Z,977.68
2018-07-21T06:42:58.751Z,977.7
2018-07-21T06:44:08.765Z,977.71
2018-07-21T06:45:18.033Z,977.75
2018-07-21T06:46:28.114Z,977.72
2018-07-21T06:47:38.194Z,977.75
2018-07-21T06:48:48.052Z,977.7
2018-07-21T06:49:58.162Z,977.72
2018-07-21T06:51:07.961Z,977.71
2018-07-21T06:52:18.022Z,977.72
2018-07-21T06:53:28.100Z,977.66
2018-07-21T06:54:37.914Z,977.65
2018-07-21T06:55:47.778Z,977.67
2018-07-21T06:56:57.846Z,977.65
2018-07-21T06:58:07.655Z,977.64
2018-07-21T06:59:17.197Z,977.6
2018-07-21T07:00:27.271Z,977.58
2018-07-21T07:01:37.130Z,977.57
2018-07-21T07:02:46.939Z,977.55
2018-07-21T07:03:57.030Z,977.55
2018-07-21T07:05:06.841Z,977.57
2018-07-21T07:06:16.918Z,977.58
2018-07-21T07:07:27.048Z,977.58
2018-07-21T07:08:37.127Z,977.58
2018-07-21T07:09:47.211Z,977.62
2018-07-21T07:10:57.265Z,977.61
2018-07-21T07:12:07.074Z,977.62
2018-07-21T07:13:16.941Z,977.61
2018-07-21T07:14:27.023Z,977.67
2018-07-21T07:15:37.105Z,977.62
2018-07-21T07:16:46.906Z,977.62
2018-07-21T07:17:56.984Z,977.59
2018-07-21T07:19:06.832Z,977.6
2018-07-21T07:20:16.629Z,977.57
2018-07-21T07:21:26.716Z,977.57
2018-07-21T07:22:36.795Z,977.56
2018-07-21T07:23:46.604Z,977.56
2018-07-21T07:24:56.729Z,977.56
2018-07-21T07:26:06.794Z,977.55
2018-07-21T07:27:16.870Z,977.57
2018-07-21T07:28:27.055Z,977.58
2018-07-21T07:29:36.590Z,977.55
2018-07-21T07:30:46.462Z,977.57
2018-07-21T07:31:56.531Z,977.54
2018-07-21T07:33:06.333Z,977.55
2018-07-21T07:34:15.599Z,977.5
2018-07-21T07:35:25.678Z,977.48
2018-07-21T07:36:35.552Z,977.51
2018-07-21T07:37:45.334Z,977.47
2018-07-21T07:38:54.885Z,977.47
2018-07-21T07:40:04.688Z,977.43
2018-07-21T07:41:14.787Z,977.43
2018-07-21T07:42:24.627Z,977.41
2018-07-21T07:43:34.698Z,977.4
2018-07-21T07:44:44.512Z,977.45
2018-07-21T07:45:54.334Z,977.44
2018-07-21T07:47:03.862Z,977.42
2018-07-21T07:48:13.698Z,977.39
2018-07-21T07:49:23.768Z,977.36
2018-07-21T07:50:33.560Z,977.37
2018-07-21T07:51:43.366Z,977.38
2018-07-21T07:52:53.445Z,977.38
2018-07-21T07:54:03.304Z,977.35
2018-07-21T07:55:13.355Z,977.33
2018-07-21T07:56:22.880Z,977.37
2018-07-21T07:57:32.691Z,977.37
2018-07-21T07:58:42.773Z,977.37
2018-07-21T07:59:52.626Z,977.37
2018-07-21T08:01:01.898Z,977.41
2018-07-21T08:02:11.560Z,977.4
2018-07-21T08:03:20.816Z,977.39
2018-07-21T08:04:30.914Z,977.37
2018-07-21T08:05:40.768Z,977.35
2018-07-21T08:06:50.833Z,977.38
2018-07-21T08:08:00.901Z,977.37
2018-07-21T08:09:10.725Z,977.4
2018-07-21T08:10:20.262Z,977.37
2018-07-21T08:11:30.394Z,977.36
2018-07-21T08:12:39.658Z,977.36
2018-07-21T08:13:49.720Z,977.44
2018-07-21T08:14:59.776Z,977.37
2018-07-21T08:16:09.045Z,977.42
2018-07-21T08:17:18.905Z,977.45
2018-07-21T08:18:28.984Z,977.44
2018-07-21T08:19:38.788Z,977.44
2018-07-21T08:20:48.865Z,977.39
2018-07-21T08:21:58.946Z,977.4
2018-07-21T08:23:09.049Z,977.38
2018-07-21T08:24:19.124Z,977.37
2018-07-21T08:25:29.209Z,977.36
2018-07-21T08:26:39.274Z,977.31
2018-07-21T08:27:49.344Z,977.39
2018-07-21T08:28:59.478Z,977.31
2018-07-21T08:30:09.761Z,977.26
2018-07-21T08:31:19.838Z,977.28
2018-07-21T08:32:29.097Z,977.29
2018-07-21T08:33:38.880Z,977.26
2018-07-21T08:34:49.005Z,977.21
2018-07-21T08:35:58.554Z,977.24
2018-07-21T08:37:08.336Z,977.22
2018-07-21T08:38:18.153Z,977.18
2018-07-21T08:39:27.675Z,977.19
2018-07-21T08:40:37.782Z,977.11
2018-07-21T08:41:47.861Z,977.14
2018-07-21T08:42:57.651Z,977.12
2018-07-21T08:44:07.192Z,977.15
2018-07-21T08:45:17.264Z,977.15
2018-07-21T08:46:27.374Z,977.13
2018-07-21T08:47:37.431Z,977.12
2018-07-21T08:48:47.223Z,977.16
2018-07-21T08:49:57.337Z,977.16
2018-07-21T08:51:07.216Z,977.14
2018-07-21T08:52:17.356Z,977.18
2018-07-21T08:53:27.423Z,977.15
2018-07-21T08:54:37.501Z,977.13
2018-07-21T08:55:47.593Z,977.15
2018-07-21T08:56:57.943Z,977.13
2018-07-21T08:58:07.814Z,977.09
2018-07-21T08:59:17.604Z,977.08
2018-07-21T09:00:27.675Z,977.05
2018-07-21T09:01:37.745Z,977.06
2018-07-21T09:02:47.555Z,977.09
2018-07-21T09:03:57.398Z,977.07
2018-07-21T09:05:06.944Z,977.07
2018-07-21T09:06:17.010Z,977.08
2018-07-21T09:07:26.794Z,977.1
2018-07-21T09:08:36.594Z,977.07
2018-07-21T09:09:46.453Z,977.06
2018-07-21T09:10:56.524Z,977.04
2018-07-21T09:12:06.634Z,977.02
2018-07-21T09:13:16.162Z,977.04
2018-07-21T09:14:25.977Z,977
2018-07-21T09:15:35.569Z,977.01
2018-07-21T09:16:45.661Z,976.99
2018-07-21T09:17:55.747Z,976.96
2018-07-21T09:19:05.540Z,977
2018-07-21T09:20:15.611Z,976.99
2018-07-21T09:21:25.526Z,976.98
2018-07-21T09:22:35.910Z,976.96
2018-07-21T09:23:45.454Z,976.98
2018-07-21T09:24:55.253Z,977.02
2018-07-21T09:26:04.796Z,976.97
2018-07-21T09:27:14.396Z,976.95
2018-07-21T09:28:24.210Z,976.96
2018-07-21T09:29:34.284Z,976.95
2018-07-21T09:30:44.384Z,976.91
2018-07-21T09:31:54.192Z,976.97
2018-07-21T09:33:03.768Z,976.92
2018-07-21T09:34:13.893Z,976.97
2018-07-21T09:35:23.774Z,976.97
2018-07-21T09:36:33.899Z,976.96
2018-07-21T09:37:43.982Z,976.92
2018-07-21T09:38:53.836Z,976.93
2018-07-21T09:40:03.958Z,976.91
2018-07-21T09:41:14.256Z,976.93
2018-07-21T09:42:24.319Z,976.93
2018-07-21T09:43:34.430Z,976.9
2018-07-21T09:44:44.287Z,976.92
2018-07-21T09:45:54.082Z,976.87
2018-07-21T09:47:03.626Z,976.86
2018-07-21T09:48:13.714Z,976.92
2018-07-21T09:49:23.798Z,976.92
2018-07-21T09:50:33.926Z,976.93
2018-07-21T09:51:43.735Z,976.93
2018-07-21T09:52:53.264Z,976.92
2018-07-21T09:54:03.336Z,976.88
2018-07-21T09:55:13.159Z,976.9
2018-07-21T09:56:22.753Z,976.87
2018-07-21T09:57:32.006Z,976.83
2018-07-21T09:58:41.555Z,976.85
2018-07-21T09:59:51.359Z,976.86
2018-07-21T10:01:00.610Z,976.84
2018-07-21T10:02:10.731Z,976.79
2018-07-21T10:03:20.004Z,976.79
2018-07-21T10:04:29.792Z,976.77
2018-07-21T10:05:39.864Z,976.75
2018-07-21T10:06:49.675Z,976.74
2018-07-21T10:07:59.790Z,976.74
2018-07-21T10:09:09.333Z,976.75
2018-07-21T10:10:19.409Z,976.69
2018-07-21T10:11:29.472Z,976.73
2018-07-21T10:12:39.544Z,976.66
2018-07-21T10:13:49.678Z,976.69
2018-07-21T10:14:59.210Z,976.68
2018-07-21T10:16:09.014Z,976.69
2018-07-21T10:17:19.086Z,976.65
2018-07-21T10:18:29.140Z,976.65
2018-07-21T10:19:39.256Z,976.65
2018-07-21T10:20:49.342Z,976.66
2018-07-21T10:21:59.480Z,976.63
2018-07-21T10:23:09.580Z,976.62
2018-07-21T10:24:19.470Z,976.63
2018-07-21T10:25:29.622Z,976.56
2018-07-21T10:26:39.440Z,976.57
2018-07-21T10:27:49.266Z,976.58
2018-07-21T10:28:58.540Z,976.54
2018-07-21T10:30:07.827Z,976.53
2018-07-21T10:31:17.564Z,976.56
2018-07-21T10:32:27.646Z,976.51
2018-07-21T10:33:37.746Z,976.51
2018-07-21T10:34:47.994Z,976.48
2018-07-21T10:35:57.862Z,976.51
2018-07-21T10:37:08.422Z,976.53
2018-07-21T10:38:18.234Z,976.5
2018-07-21T10:39:28.302Z,976.52
2018-07-21T10:40:38.357Z,976.49
2018-07-21T10:41:47.889Z,976.52
2018-07-21T10:42:57.754Z,976.46
2018-07-21T10:44:07.289Z,976.43
2018-07-21T10:45:17.109Z,976.45
2018-07-21T10:46:27.195Z,976.46
2018-07-21T10:47:36.745Z,976.4
2018-07-21T10:48:46.328Z,976.41
2018-07-21T10:49:56.413Z,976.4
2018-07-21T10:51:06.214Z,976.39
2018-07-21T10:52:16.281Z,976.42
2018-07-21T10:53:26.076Z,976.44
2018-07-21T10:54:35.932Z,976.46
2018-07-21T10:55:46.012Z,976.44
2018-07-21T10:56:55.266Z,976.45
2018-07-21T10:58:05.070Z,976.42
2018-07-21T10:59:15.154Z,976.41
2018-07-21T11:00:25.292Z,976.4
2018-07-21T11:01:35.417Z,976.39
2018-07-21T11:02:45.501Z,976.3
2018-07-21T11:03:54.765Z,976.33
2018-07-21T11:05:04.037Z,976.32
2018-07-21T11:06:13.909Z,976.31
2018-07-21T11:07:23.982Z,976.33
2018-07-21T11:08:33.513Z,976.32
2018-07-21T11:09:43.331Z,976.28
2018-07-21T11:10:53.132Z,976.28
2018-07-21T11:12:02.697Z,976.24
2018-07-21T11:13:11.953Z,976.24
2018-07-21T11:14:21.783Z,976.25
2018-07-21T11:15:31.874Z,976.26
2018-07-21T11:16:41.707Z,976.22
2018-07-21T11:17:51.584Z,976.23
2018-07-21T11:19:01.399Z,976.24
2018-07-21T11:20:11.217Z,976.2
2018-07-21T11:21:21.300Z,976.24
2018-07-21T11:22:31.381Z,976.23
2018-07-21T11:23:41.507Z,976.22
2018-07-21T11:24:51.313Z,976.22
2018-07-21T11:26:01.400Z,976.21
2018-07-21T11:27:11.198Z,976.18
2018-07-21T11:28:21.008Z,976.23
2018-07-21T11:29:31.118Z,976.2
2018-07-21T11:30:40.918Z,976.19
2018-07-21T11:31:51.014Z,976.21
2018-07-21T11:33:01.092Z,976.19
2018-07-21T11:34:11.161Z,976.15
2018-07-21T11:35:21.379Z,976.13
2018-07-21T11:36:31.862Z,976.12
2018-07-21T11:37:41.773Z,976.21
2018-07-21T11:38:51.589Z,976.18
2018-07-21T11:40:01.656Z,976.2
2018-07-21T11:41:11.508Z,976.22
2018-07-21T11:42:21.594Z,976.31
2018-07-21T11:43:31.658Z,976.27
2018-07-21T11:44:41.469Z,976.2
2018-07-21T11:45:51.264Z,976.22
2018-07-21T11:47:01.138Z,976.19
2018-07-21T11:48:11.218Z,976.16
2018-07-21T11:49:21.035Z,976.16
2018-07-21T11:50:30.851Z,976.06
2018-07-21T11:51:40.937Z,975.98
2018-07-21T11:52:50.814Z,976.08
2018-07-21T11:54:00.880Z,976.04
2018-07-21T11:55:10.684Z,976.04
2018-07-21T11:56:20.755Z,976.02
2018-07-21T11:57:30.568Z,976.02
2018-07-21T11:58:40.703Z,975.95
2018-07-21T11:59:50.796Z,976.07
2018-07-21T12:01:00.872Z,976.07
2018-07-21T12:02:10.140Z,976.03
2018-07-21T12:03:19.941Z,975.92
2018-07-21T12:04:30.077Z,975.92
2018-07-21T12:05:39.712Z,975.92
2018-07-21T12:06:49.916Z,975.95
2018-07-21T12:07:59.475Z,975.99
2018-07-21T12:09:09.285Z,975.88
2018-07-21T12:10:19.445Z,975.81
2018-07-21T12:11:29.269Z,975.78
2018-07-21T12:12:38.552Z,975.82
2018-07-21T12:13:48.120Z,975.8
2018-07-21T12:14:57.949Z,975.73
2018-07-21T12:16:07.566Z,975.78
2018-07-21T12:17:17.381Z,975.85
2018-07-21T12:18:27.477Z,975.74
2018-07-21T12:19:37.575Z,975.75
2018-07-21T12:20:47.387Z,975.78
2018-07-21T12:21:57.522Z,975.72
2018-07-21T12:23:07.613Z,975.73
2018-07-21T12:24:17.443Z,975.74
2018-07-21T12:25:27.536Z,975.69
2018-07-21T12:26:37.617Z,975.75
2018-07-21T12:27:47.777Z,975.69
2018-07-21T12:28:57.340Z,975.68
2018-07-21T12:30:07.145Z,975.74
2018-07-21T12:31:16.701Z,975.68
2018-07-21T12:32:26.530Z,975.64
2018-07-21T12:33:36.697Z,975.7
2018-07-21T12:34:47.039Z,975.64
2018-07-21T12:35:57.121Z,975.66
2018-07-21T12:37:07.231Z,975.7
2018-07-21T12:38:17.312Z,975.6
2018-07-21T12:39:27.200Z,975.58
2018-07-21T12:40:37.290Z,975.61
2018-07-21T12:41:47.100Z,975.71
2018-07-21T12:42:56.923Z,975.61
2018-07-21T12:44:06.469Z,975.58
2018-07-21T12:45:16.336Z,975.7
2018-07-21T12:46:26.424Z,975.57
2018-07-21T12:47:36.263Z,975.66
2018-07-21T12:48:45.794Z,975.63
2018-07-21T12:49:55.903Z,975.58
2018-07-21T12:51:06.021Z,975.55
2018-07-21T12:52:16.093Z,975.57
2018-07-21T12:53:26.193Z,975.58
2018-07-21T12:54:36.299Z,975.58
2018-07-21T12:55:45.843Z,975.51
2018-07-21T12:56:55.728Z,975.53
2018-07-21T12:58:05.841Z,975.51
2018-07-21T12:59:15.949Z,975.54
2018-07-21T13:00:25.526Z,975.47
2018-07-21T13:01:35.374Z,975.53
2018-07-21T13:02:45.248Z,975.42
2018-07-21T13:03:55.064Z,975.58
2018-07-21T13:05:04.886Z,975.45
2018-07-21T13:06:14.728Z,975.4
2018-07-21T13:07:24.283Z,975.49
2018-07-21T13:08:34.431Z,975.47
2018-07-21T13:09:44.558Z,975.43
2018-07-21T13:10:55.055Z,975.48
2018-07-21T13:12:05.139Z,975.51
2018-07-21T13:13:14.966Z,975.49
2018-07-21T13:14:25.122Z,975.44
2018-07-21T13:15:35.215Z,975.38
2018-07-21T13:16:45.049Z,975.36
2018-07-21T13:17:54.585Z,975.53
2018-07-21T13:19:04.397Z,975.56
2018-07-21T13:20:14.529Z,975.52
2018-07-21T13:21:24.599Z,975.42
2018-07-21T13:22:34.703Z,975.46
2018-07-21T13:23:44.795Z,975.44
2018-07-21T13:24:54.606Z,975.45
2018-07-21T13:26:08.158Z,975.54
2018-07-21T13:27:18.241Z,975.55
2018-07-21T13:28:28.061Z,975.53
2018-07-21T13:29:38.155Z,975.54
2018-07-21T13:30:47.975Z,975.54
2018-07-21T13:31:57.576Z,975.58
2018-07-21T13:33:07.425Z,975.55
2018-07-21T13:34:17.139Z,975.51
2018-07-21T13:35:26.687Z,975.52
2018-07-21T13:36:36.789Z,975.53
2018-07-21T13:37:46.949Z,975.5
2018-07-21T13:38:57.047Z,975.45
2018-07-21T13:40:06.864Z,975.51
2018-07-21T13:41:16.426Z,975.49
2018-07-21T13:42:26.532Z,975.42
2018-07-21T13:43:36.399Z,975.45
2018-07-21T13:44:46.224Z,975.45
2018-07-21T13:45:55.786Z,975.39
2018-07-21T13:47:05.881Z,975.44
2018-07-21T13:48:15.436Z,975.39
2018-07-21T13:49:25.326Z,975.46
2018-07-21T13:50:35.165Z,975.45
2018-07-21T13:51:44.970Z,975.42
2018-07-21T13:52:55.047Z,975.45
2018-07-21T13:54:04.931Z,975.43
2018-07-21T13:55:14.745Z,975.42
2018-07-21T13:56:24.831Z,975.43
2018-07-21T13:57:34.974Z,975.46
2018-07-21T13:58:45.075Z,975.44
2018-07-21T13:59:54.896Z,975.45
2018-07-21T14:01:04.472Z,975.47
2018-07-21T14:02:14.560Z,975.44
2018-07-21T14:03:25.082Z,975.41
2018-07-21T14:04:35.188Z,975.4
2018-07-21T14:05:45.013Z,975.4
2018-07-21T14:06:54.631Z,975.35
2018-07-21T14:08:04.460Z,975.33
2018-07-21T14:09:14.273Z,975.32
2018-07-21T14:10:23.820Z,975.35
2018-07-21T14:11:33.903Z,975.32
2018-07-21T14:12:44.061Z,975.35
2018-07-21T14:13:54.161Z,975.37
2018-07-21T14:15:04.241Z,975.39
2018-07-21T14:16:14.364Z,975.41
2018-07-21T14:17:24.458Z,975.6
2018-07-21T14:18:34.320Z,975.65
2018-07-21T14:19:44.412Z,975.56
2018-07-21T14:20:54.497Z,975.65
2018-07-21T14:22:04.578Z,975.86
2018-07-21T14:23:14.413Z,975.9
2018-07-21T14:24:24.293Z,975.84
2018-07-21T14:25:34.374Z,975.98
2018-07-21T14:26:44.476Z,976.25
2018-07-21T14:27:54.592Z,976.4
2018-07-21T14:29:04.414Z,976.51
2018-07-21T14:30:14.278Z,976.46
2018-07-21T14:31:24.379Z,976.2
2018-07-21T14:32:34.476Z,976.14
2018-07-21T14:33:44.569Z,976.02
2018-07-21T14:34:54.398Z,976.3
2018-07-21T14:36:04.755Z,976.34
2018-07-21T14:37:16.053Z,976.13
2018-07-21T14:38:26.125Z,975.93